Tiempo atmosférico en la estación meteorológica de Cazalla De La Sierra, Sevilla (550 m.)



Fecha
DESCASC
Temp. máxima en grados centígrados (hora)
DESCASC
Temp. mínima en grados centígrados (hora)
DESCASC
Temp. media en grados centígrados
DESCASC
Racha de viento máxima en m/sg (hora)
DESCASC
Velocidad máxima media en intervalos de 10 minutos(hora)
DESCASC
Precipitaciones diarias en mm
DESCASC
Precipitaciones de 00:00 a 06:00 en mm
DESCASC
Precipitaciones de 06:00 a 12:00 en mm
DESCASC
Precipitaciones de 12:00 a 18:00 en mm
DESCASC
Precipitaciones de 18:00 a 24:00 en mm
DESCASC
19-05-2019 23.3 (16:40) 9.4 (07:40) 16.3 10.28 (17:40) 5.83 (15:00) 0 0 0 0 0
18-05-2019 20.8 (16:00) 7.5 (08:00) 14.1 13.06 (16:20) 6.67 (17:40) 0 0 0 0 0
17-05-2019 20.2 (17:40) 7.6 (07:10) 13.9 13.06 (09:00) 5.83 (10:40) 0 0 0 0 0
16-05-2019 28.9 (15:40) 10.1 (00:00) 19.5 13.33 (23:00) 7.22 (23:10) 0 0 0 0 0
15-05-2019 32.7 (16:30) 10.5 (00:00) 21.6 -- (--) -- (--) 0 0 0 0 0
14-05-2019 29 (16:50) 13.3 (00:00) 21.2 -- (--) -- (--) 0 0 0 0 0
13-05-2019 33.2 (17:00) 11 (00:00) 22.1 -- (--) -- (--) 0 0 0 0 0
12-05-2019 30.4 (18:20) 12.9 (00:00) 21.6 8.33 (11:30) 4.17 (11:20) 0 0 0 0 0
11-05-2019 30.6 (17:20) 11.2 (00:00) 20.9 6.39 (16:40) 3.33 (10:30) 0 0 0 0 0
10-05-2019 26.9 (18:00) 11 (00:00) 18.9 7.78 (20:40) 3.89 (19:10) 0 0 0 0 0
09-05-2019 22 (17:20) 13.2 (00:00) 17.6 6.39 (17:40) 3.33 (01:40) 0 0 0 0 0
08-05-2019 20.4 (14:20) 10.4 (00:00) 15.4 8.89 (11:00) 5.28 (11:20) 0 0 0 0 0
07-05-2019 24.8 (18:00) 8 (00:00) 16.4 8.06 (17:30) 4.17 (18:50) 0 0 0 0 0
06-05-2019 22.8 (18:20) 8.5 (00:00) 15.6 7.78 (19:10) 3.33 (16:20) 0 0 0 0 0
05-05-2019 22.6 (17:00) 8.8 (00:00) 15.7 8.61 (18:20) 3.06 (19:00) 0 0 0 0 0
04-05-2019 22.5 (18:00) 8.5 (00:00) 15.5 7.22 (17:20) 2.78 (17:30) 0 0 0 0 0
03-05-2019 25.9 (15:30) 9.9 (00:00) 17.9 10.56 (17:50) 5.83 (17:50) 0 0 0 0 0
02-05-2019 27.7 (18:20) 10.4 (07:30) 19.1 6.39 (15:40) 3.06 (10:40) 0 0 0 0 0
01-05-2019 27.1 (18:00) 10.9 (00:00) 19 5 (13:00) 2.22 (17:10) 0 0 0 0 0
30-04-2019 26.7 (15:50) 10 (00:00) 18.4 6.39 (17:10) 3.33 (19:20) 0 0 0 0 0
29-04-2019 25.9 (17:50) 8.5 (00:00) 17.2 6.67 (14:20) 2.78 (12:30) 0 0 0 0 0
28-04-2019 25.6 (17:00) 6.3 (00:00) 16 5 (17:10) 2.22 (14:50) 0 0 0 0 0
27-04-2019 24.6 (18:50) 9 (00:00) 16.8 6.94 (11:40) 3.61 (09:40) 0 0 0 0 0
26-04-2019 18.8 (17:20) 4.8 (00:00) 11.8 7.5 (15:40) 3.33 (18:40) 0 0 0 0 0
25-04-2019 15.7 (15:40) 7.1 (00:00) 11.4 10.56 (16:10) 6.39 (17:20) 12 11.9 0.1 0 0
24-04-2019 12.4 (21:00) 4.7 (00:00) 8.5 14.44 (16:20) 5.83 (20:30) 40.7 0.2 1.5 16.8 22.2
23-04-2019 13 (16:00) 5 (00:00) 9 11.67 (14:00) 6.94 (16:40) 13.3 8.9 2.7 1.2 0.5

Gráficas

Temp. máximas Temp. mínimas Temp. medias Precipitaciones Rachas de viento máximas Velocidades máximas media en intervalos de 10 minutos

Datos horarios

Fecha y hora oficial Temperatura (ºC) Velocidad del viento (km/h) Dirección del viento Racha (km/h) Dirección de racha Precipitación (mm) Presión (hPa) Tendencia (hPa) Humedad (%)
2019-05-22 23:00:00 16.5 0 Calma 6 Oeste 0 953.4 1.3 46
2019-05-22 22:00:00 21.6 4 Sur 10 Sur 0 952.8 0.7 30
2019-05-22 21:00:00 25.5 3 Sudoeste 13 Sur 0 952.4 0.2 23
2019-05-22 20:00:00 26.4 6 Oeste 14 Noroeste 0 952.1 -0.5 23
2019-05-22 19:00:00 27.2 6 Sudoeste 18 Oeste 0 952.1 -0.7 22
2019-05-22 18:00:00 27.8 3 Sudoeste 16 Oeste 0 952.2 -1.2 22
2019-05-22 17:00:00 27.2 5 Oeste 17 Sudoeste 0 952.6 -1 23
2019-05-22 16:00:00 25.7 4 Sudoeste 11 Sur 0 952.8 -0.9 26
2019-05-22 15:00:00 24.8 4 Noroeste 15 Sudoeste 0 953.4 -0.4 28
2019-05-22 14:00:00 24.8 7 Oeste 19 Sudeste 0 953.6 0 31
2019-05-22 13:00:00 24.4 6 Sur 15 Sur 0 953.7 0.4 31
2019-05-22 12:00:00 23.3 5 Sur 15 Sudoeste 0 953.8 0.9 37
2019-05-22 11:00:00 21.3 5 Sur 12 Sur 0 953.6 1.1 41
2019-05-22 10:00:00 19.7 6 Sudoeste 10 Sudoeste 0 953.3 1.4 47
2019-05-22 09:00:00 17.3 2 Este 5 Este 0 952.9 1.3 59
2019-05-22 08:00:00 12 0 Calma 8 Este 0 952.5 0.5 73
2019-05-22 07:00:00 12.3 5 Sudeste 8 Este 0 951.9 -0.2 77
2019-05-22 06:00:00 10.6 5 Este 8 Este 0 951.6 -0.6 79
2019-05-22 05:00:00 10.6 3 Sudeste 7 Este 0 952 -0.1 79
2019-05-22 04:00:00 10.7 3 Este 7 Este 0 952.1 0 80
2019-05-22 03:00:00 11.5 5 Este 7 Sudeste 0 952.2 0 80
2019-05-22 02:00:00 11.9 4 Este 6 Este 0 952.1 0.2 79
2019-05-22 01:00:00 12.5 4 Este 6 Este 0 952.1 1.1 76
2019-05-22 00:00:00 14.2 0 Calma 6 Nordeste 0 952.2 1.7 68
2019-05-21 23:00:00 17.1 2 Sudeste 9 Sur 0 951.9 1.9 56
2019-05-21 22:00:00 20 6 Sudoeste 17 Sur 0 951 1.3 44
2019-05-21 21:00:00 21.6 5 Sudoeste 17 Sudoeste 0 950.5 0.7 37
2019-05-21 20:00:00 22.5 7 Sudoeste 21 Sudoeste 0 950 -0.2 31
2019-05-21 19:00:00 26.1 7 Oeste 28 Noroeste 0 949.7 -0.7 24
2019-05-21 18:00:00 26.2 6 Oeste 22 Oeste 0 949.8 -0.7 24
2019-05-21 17:00:00 23.9 9 Oeste 22 Oeste 0 950.2 -0.7 26
2019-05-21 16:00:00 24.9 4 Sudoeste 20 Oeste 0 950.4 -0.8 27
2019-05-21 15:00:00 23.3 0 Calma 21 Noroeste 0 950.5 -0.8 29
2019-05-21 14:00:00 23.5 9 Oeste 21 Oeste 0 950.9 -0.5 33
2019-05-21 13:00:00 22.2 6 Noroeste 16 Oeste 0 951.2 0.2 34
2019-05-21 12:00:00 22.2 3 Sudeste 16 Noroeste 0 951.3 0.5 37
2019-05-21 11:00:00 21.2 5 Norte 16 Norte 0 951.4 0.7 38
2019-05-21 10:00:00 18.7 4 Norte 15 Norte 0 951 0.6 46
2019-05-21 09:00:00 15.6 7 Norte 17 Nordeste 0 950.8 0.7 56
2019-05-21 08:00:00 11.5 3 Sudeste 11 Nordeste 0 950.7 0.5 69
2019-05-21 07:00:00 9.3 2 Este 7 Norte 0 950.4 0.3 73
2019-05-21 06:00:00 10.5 2 Este 7 Norte 0 950.1 -0.1 68
2019-05-21 05:00:00 12.4 0 Calma 14 Noroeste 0 950.2 -0.1 58
2019-05-21 04:00:00 13.2 7 Noroeste 18 Noroeste 0 950.1 -0.2 56
2019-05-21 03:00:00 13.6 6 Noroeste 18 Noroeste 0 950.2 0 53
2019-05-21 02:00:00 14.7 9 Noroeste 19 Noroeste 0 950.3 0.8 51
2019-05-21 01:00:00 14.2 5 Noroeste 12 Norte 0 950.3 1.5 47
2019-05-21 00:00:00 12.4 2 Nordeste 9 Norte 0 950.2 2.1 54
2019-05-20 23:00:00 14.6 0 Calma 9 Oeste 0 949.5 1.8 42
2019-05-20 22:00:00 17.8 3 Oeste 17 Noroeste 0 948.8 1 28
2019-05-20 21:00:00 20.6 11 Oeste 23 Oeste 0 948.1 0.3 24
2019-05-20 20:00:00 22.5 12 Noroeste 26 Noroeste 0 947.7 -0.3 22
2019-05-20 19:00:00 25.3 4 Norte 22 Oeste 0 947.8 -0.7 22
2019-05-20 18:00:00 25.3 6 Oeste 26 Oeste 0 947.8 -1.3 21
2019-05-20 17:00:00 25.2 4 Sur 23 Sudoeste 0 948 -1.3 22
2019-05-20 16:00:00 24.9 9 Noroeste 25 Noroeste 0 948.5 -1.3 22
2019-05-20 15:00:00 23.2 10 Oeste 26 Sudoeste 0 949.1 -0.6 23
2019-05-20 14:00:00 22.6 8 Oeste 20 Noroeste 0 949.3 -0.5 23
2019-05-20 13:00:00 21.5 6 Oeste 23 Oeste 0 949.8 0.4 26
2019-05-20 12:00:00 19.7 7 Oeste 17 Oeste 0 949.7 0.5 30
2019-05-20 11:00:00 18.2 7 Noroeste 14 Oeste 0 949.8 0.9 35
2019-05-20 10:00:00 16.2 5 Oeste 10 Oeste 0 949.4 1.2 42
2019-05-20 09:00:00 13 0 Calma 6 Noroeste 0 949.2 0.8 58
2019-05-20 08:00:00 8.8 4 Este 6 Este 0 948.9 0.2 72
2019-05-20 07:00:00 7.4 4 Este 6 Sudeste 0 948.2 -0.5 75
2019-05-20 06:00:00 7.9 4 Sudeste 7 Este 0 948.4 -0.8 75
2019-05-20 05:00:00 8.6 2 Este 7 Noroeste 0 948.7 -0.7 73
2019-05-20 04:00:00 10.5 4 Noroeste 10 Noroeste 0 948.7 -1.1 66
2019-05-20 03:00:00 10.1 3 Norte 8 Noroeste 0 949.2 -0.3 70
2019-05-20 02:00:00 10.3 4 Sudeste 5 Sudeste 0 949.4 0 71
2019-05-20 01:00:00 11.3 0 Calma 8 Nordeste 0 949.8 1.1 65
2019-05-20 00:00:00 13 2 Norte 8 Noroeste 0 949.5 1.3 58
2019-05-19 23:00:00 12.6 0 Calma 4 Oeste 0 949.4 1.5 57
2019-05-19 22:00:00 14.6 2 Nordeste 8 Noroeste 0 948.7 0.8 48
2019-05-19 21:00:00 18 5 Noroeste 19 Noroeste 0 948.2 0.3 37
2019-05-19 20:00:00 19.5 12 Noroeste 26 Noroeste 0 947.9 -0.4 32
2019-05-19 19:00:00 20.2 12 Noroeste 25 Noroeste 0 947.9 -0.8 31
2019-05-19 18:00:00 21.2 11 Noroeste 37 Oeste 0 947.9 -1 30
2019-05-19 17:00:00 22.8 13 Oeste 30 Oeste 0 948.3 -1 29
2019-05-19 16:00:00 22.1 14 Oeste 30 Oeste 0 948.7 -0.7 29
2019-05-19 15:00:00 21 21 Oeste 32 Noroeste 0 948.9 -0.7 31
2019-05-19 14:00:00 20.5 9 Noroeste 31 Oeste 0 949.3 -0.7 32
2019-05-19 13:00:00 19.1 7 Oeste 20 Oeste 0 949.4 -0.4 37
2019-05-19 12:00:00 17.3 5 Norte 21 Oeste 0 949.6 0.2 41
2019-05-19 11:00:00 15.8 10 Noroeste 24 Oeste 0 950 0.8 47
2019-05-19 10:00:00 14.3 6 Norte 15 Noroeste 0 949.8 1 52
2019-05-19 09:00:00 11.8 9 Norte 23 Noroeste 0 949.4 0.8 62
2019-05-19 08:00:00 9.8 3 Noroeste 12 Norte 0 949.2 0.4 67
2019-05-19 07:00:00 9.6 5 Noroeste 20 Noroeste 0 948.8 -0.1 65
2019-05-19 06:00:00 10.1 8 Noroeste 18 Noroeste 0 948.6 -0.7 62
2019-05-19 05:00:00 10.6 4 Norte 23 Noroeste 0 948.8 -1 59
2019-05-19 04:00:00 10.9 7 Noroeste 23 Oeste 0 948.9 -1.1 57
2019-05-19 03:00:00 11.5 9 Norte 20 Noroeste 0 949.3 -1 54
2019-05-19 02:00:00 11.6 9 Noroeste 19 Noroeste 0 949.8 -0.4 52
2019-05-19 01:00:00 11.6 7 Oeste 24 Noroeste 0 950 0.2 51
2019-05-19 00:00:00 12.1 11 Noroeste 22 Noroeste 0 950.3 1.1 48
2019-05-18 23:00:00 13.3 10 Noroeste 21 Oeste 0 950.2 1.5 43
2019-05-18 22:00:00 14.3 12 Noroeste 28 Noroeste 0 949.8 1.5 38
2019-05-18 21:00:00 15.8 12 Noroeste 29 Oeste 0 949.2 1 33
2019-05-18 20:00:00 17.2 14 Noroeste 36 Oeste 0 948.7 0.4 33
2019-05-18 19:00:00 18.9 18 Noroeste 37 Oeste 0 948.3 -0.3 31
2019-05-18 18:00:00 19.7 17 Noroeste 42 Noroeste 0 948.2 -0.7 29
2019-05-18 17:00:00 19.8 20 Noroeste 47 Oeste 0 948.3 -0.6 29
2019-05-18 16:00:00 20.2 14 Noroeste 39 Noroeste 0 948.6 -0.6 29
2019-05-18 15:00:00 19 18 Noroeste 35 Noroeste 0 948.9 -0.5 31
2019-05-18 14:00:00 18.2 17 Noroeste 40 Oeste 0 948.9 -0.2 33
2019-05-18 13:00:00 16.9 14 Noroeste 31 Noroeste 0 949.2 0.3 37
2019-05-18 12:00:00 16 14 Noroeste 30 Norte 0 949.4 0.8 39
2019-05-18 11:00:00 14.3 13 Norte 31 Noroeste 0 949.1 0.4 45
2019-05-18 10:00:00 12 11 Noroeste 27 Noroeste 0 948.9 1 54
2019-05-18 09:00:00 10.1 8 Noroeste 21 Noroeste 0 948.6 0.7 63
2019-05-18 08:00:00 7.7 7 Noroeste 16 Norte 0 948.7 1 69
2019-05-18 07:00:00 8 8 Noroeste 19 Noroeste 0 947.9 0 67
2019-05-18 06:00:00 8 7 Noroeste 16 Norte 0 947.9 -0.8 65
2019-05-18 05:00:00 9.5 6 Noroeste 20 Noroeste 0 947.7 -1.3 59
2019-05-18 04:00:00 10.4 3 Norte 21 Noroeste 0 947.9 -1.7 57
2019-05-18 03:00:00 10.2 10 Noroeste 24 Noroeste 0 948.7 -1.2 56
2019-05-18 02:00:00 11 12 Noroeste 30 Noroeste 0 949 -0.4 53
2019-05-18 01:00:00 11.9 14 Noroeste 30 Noroeste 0 949.6 0.9 52
2019-05-18 00:00:00 12.8 12 Noroeste 27 Oeste 0 949.9 1.6 50
2019-05-17 23:00:00 13.5 11 Noroeste 26 Noroeste 0 949.4 1 46
2019-05-17 22:00:00 14 9 Noroeste 18 Noroeste 0 948.7 0.2 44
2019-05-17 21:00:00 16.6 12 Noroeste 27 Oeste 0 948.3 -0.3 36
2019-05-17 20:00:00 18.5 15 Noroeste 33 Noroeste 0 948.4 -0.7 31
2019-05-17 19:00:00 19 17 Noroeste 32 Norte 0 948.5 -1.1 29
2019-05-17 18:00:00 19.3 16 Noroeste 36 Noroeste 0 948.6 -1.2 31
2019-05-17 17:00:00 19.6 17 Noroeste 38 Noroeste 0 949.1 -0.8 31
2019-05-17 16:00:00 17.7 18 Noroeste 37 Oeste 0 949.6 -0.5 34
2019-05-17 15:00:00 17.5 19 Noroeste 36 Noroeste 0 949.8 0.1 36
2019-05-17 14:00:00 16.9 14 Noroeste 36 Oeste 0 949.9 0.5 39
2019-05-17 13:00:00 15.5 10 Noroeste 35 Norte 0 950.1 0.6 42
2019-05-17 12:00:00 14.8 15 Noroeste 44 Noroeste 0 949.7 0.8 44
2019-05-17 11:00:00 13.8 16 Norte 40 Noroeste 0 949.4 0.5 48
2019-05-17 10:00:00 11.8 13 Norte 35 Norte 0 949.5 1.3 53
2019-05-17 09:00:00 10.6 10 Norte 47 Norte 0 948.9 0.7 61
2019-05-17 08:00:00 8.8 13 Norte 31 Norte 0 948.9 0.7 67
2019-05-17 07:00:00 7.8 8 Noroeste 31 Norte 0 948.2 0.4 69
2019-05-17 06:00:00 8.3 10 Norte 32 Noroeste 0 948.2 0.4 67
2019-05-17 05:00:00 8.5 11 Noroeste 37 Noroeste 0 948.2 0.1 67
2019-05-17 04:00:00 9.3 17 Noroeste 37 Norte 0 947.8 -0.2 67
2019-05-17 03:00:00 10.3 20 Noroeste 36 Noroeste 0 947.8 -0.4 67
2019-05-17 02:00:00 11.1 14 Noroeste 32 Norte 0 948.1 0.7 65
2019-05-17 01:00:00 12.3 12 Noroeste 39 Noroeste 0 948 1.3 60
2019-05-17 00:00:00 13.6 10 Norte 44 Noroeste 0 948.2 2 57
2019-05-16 23:00:00 16.1 24 Noroeste 48 Noroeste 0 947.4 1.9 53
2019-05-16 22:00:00 18.5 14 Noroeste 32 Noroeste 0 946.7 1.7 38
2019-05-16 21:00:00 20.2 14 Noroeste 46 Oeste 0 946.2 1.2 31
2019-05-16 20:00:00 23.3 23 Noroeste 43 Oeste 0 945.5 0.1 28
2019-05-16 19:00:00 25.9 23 Oeste 39 Oeste 0 945 -0.8 26
2019-05-16 18:00:00 27 21 Noroeste 34 Noroeste 0 945 -1.4 24
2019-05-16 17:00:00 27.9 18 Oeste 33 Oeste 0 945.4 -1.3 23
2019-05-16 16:00:00 28.5 18 Oeste 36 Oeste 0 945.8 -1.2 21
2019-05-16 15:00:00 27.5 10 Sudoeste 25 Sudoeste 0 946.4 -0.5 27
2019-05-16 14:00:00 27.6 10 Oeste 23 Oeste 0 946.7 -0.4 28
2019-05-16 13:00:00 26.6 6 Sudoeste 19 Oeste 0 947 0.2 24
2019-05-16 12:00:00 25.8 8 Oeste 22 Noroeste 0 946.9 0.2 27
2019-05-16 11:00:00 24.6 4 Sudoeste 13 Oeste 0 947.1 0.2 29
2019-05-16 10:00:00 21.8 0 Calma 4 Oeste 0 946.8 0.2 41
2019-05-16 09:00:00 17.2 2 Este 6 Este 0 946.7 0.3 57
2019-05-16 08:00:00 11.5 4 Este 6 Este 0 946.9 0.1 72
2019-05-16 07:00:00 10.6 3 Sudeste 6 Sudoeste 0 946.6 -0.4 72
2019-05-16 06:00:00 11.6 5 Este 9 Este 0 946.4 -1.1 68
2019-05-16 05:00:00 12.5 5 Sudeste 9 Este 0 946.8 -1 64
2019-05-16 04:00:00 13.6 5 Este 7 Este 0 947 -1.1 60
2019-05-16 03:00:00 16.8 0 Calma 10 Norte 0 947.5 -0.8 48
2019-05-16 02:00:00 19.6 4 Noroeste 14 Noroeste 0 947.8 -0.4 41
2019-05-16 01:00:00 19.3 6 Noroeste 15 Norte 0 948.1 0.6 43
2019-05-16 00:00:00 15 3 Sudeste 6 Este 0 948.3 1 58
2019-05-15 23:00:00 16.3 4 Sudeste 6 Sudeste 0 948.2 1.1 55
2019-05-15 22:00:00 18.6 4 Este 6 Este 0 947.5 0.3 45
2019-05-15 21:00:00 27.1 3 Oeste 16 Oeste 0 947.3 0 22
2019-05-15 20:00:00 29.6 10 Oeste 23 Oeste 0 947.1 -0.5 17
2019-05-15 19:00:00 31.2 13 Oeste 31 Oeste 0 947.2 -0.9 17
2019-05-15 18:00:00 31.6 15 Oeste 26 Oeste 0 947.3 -1.3 18
2019-05-15 17:00:00 32 9 Oeste 26 Oeste 0 947.6 -1.7 18
2019-05-15 16:00:00 31.6 9 Oeste 24 Oeste 0 948.1 -1.8 23
2019-05-15 15:00:00 30.8 8 Sudoeste 21 Noroeste 0 948.6 -1.6 22
2019-05-15 14:00:00 29.9 5 Sudoeste 18 Oeste 0 949.3 -0.7 23
2019-05-15 13:00:00 29.1 5 Noroeste -- -- 0 949.9 -0.2 29
2019-05-15 12:00:00 27.3 -- -- -- -- 0 950.2 0.2 36
2019-05-15 11:00:00 25.5 -- -- -- -- 0 950 0.3 47
2019-05-15 10:00:00 22.7 -- -- -- -- 0 950.1 0.6 58
2019-05-15 09:00:00 18 -- -- -- -- 0 950 0.6 70
2019-05-15 08:00:00 12.6 -- -- -- -- 0 949.7 0 78
2019-05-15 07:00:00 10.8 -- -- -- -- 0 949.5 -0.4 78
2019-05-15 06:00:00 10.9 -- -- -- -- 0 949.4 -0.8 76
2019-05-15 05:00:00 11.1 -- -- -- -- 0 949.7 -1 78
2019-05-15 04:00:00 11.7 -- -- -- -- 0 949.9 -1 75
2019-05-15 03:00:00 11.7 -- -- -- -- 0 950.2 -1.2 75
2019-05-15 02:00:00 12.9 -- -- -- -- 0 950.7 -0.5 68
2019-05-15 01:00:00 13.2 -- -- -- -- 0 950.9 0 65
2019-05-15 00:00:00 13.6 -- -- -- -- 0 951.4 0.7 67
2019-05-14 23:00:00 15.1 -- -- -- -- 0 951.2 0.6 59
2019-05-14 22:00:00 17.7 -- -- -- -- 0 950.9 0.2 47
2019-05-14 21:00:00 25 -- -- -- -- 0 950.7 -0.2 29
2019-05-14 20:00:00 26.7 -- -- -- -- 0 950.6 -0.9 28
2019-05-14 19:00:00 27.6 -- -- -- -- 0 950.7 -1.1 28
2019-05-14 18:00:00 28.7 -- -- -- -- 0 950.9 -1.1 29
2019-05-14 17:00:00 28.5 -- -- -- -- 0 951.5 -1 29
2019-05-14 16:00:00 28 -- -- -- -- 0 951.8 -1 29
2019-05-14 15:00:00 26.9 -- -- -- -- 0 952 -0.7 29
2019-05-14 14:00:00 25.9 -- -- -- -- 0 952.5 -0.3 32
2019-05-14 13:00:00 24.9 -- -- -- -- 0 952.8 0.1 36
2019-05-14 12:00:00 23.1 -- -- -- -- 0 952.7 0.1 38
2019-05-14 11:00:00 22 -- -- -- -- 0 952.8 0.5 38
2019-05-14 10:00:00 20.3 -- -- -- -- 0 952.7 0.9 43
2019-05-14 09:00:00 18 -- -- -- -- 0 952.6 0.7 51
2019-05-14 08:00:00 16.2 -- -- -- -- 0 952.3 0.4 52
2019-05-14 07:00:00 14.7 -- -- -- -- 0 951.8 -0.2 54
2019-05-14 06:00:00 15 -- -- -- -- 0 951.9 -0.1 59
2019-05-14 05:00:00 14.9 -- -- -- -- 0 951.9 -0.1 65
2019-05-14 04:00:00 15.1 -- -- -- -- 0 952 0.6 65
2019-05-14 03:00:00 17.3 -- -- -- -- 0 952 0.6 58
2019-05-14 02:00:00 18.6 -- -- -- -- 0 952 0.5 49
2019-05-14 01:00:00 14.6 -- -- -- -- 0 951.4 0.4 54
2019-05-14 00:00:00 14.5 -- -- -- -- 0 951.4 0.7 58
2019-05-13 23:00:00 15.4 -- -- -- -- 0 951.5 1.2 56
2019-05-13 22:00:00 18.6 -- -- -- -- 0 951 0.5 48
2019-05-13 21:00:00 25.3 -- -- -- -- 0 950.7 0.1 33
2019-05-13 20:00:00 31.9 -- -- -- -- 0 950.3 -0.5 17
2019-05-13 19:00:00 32 -- -- -- -- 0 950.5 -0.8 15
2019-05-13 18:00:00 32.5 -- -- -- -- 0 950.6 -1.6 15
2019-05-13 17:00:00 32.8 5 Nordeste 16 Este 0 950.8 -2.2 17
2019-05-13 16:00:00 32 4 Sudeste 14 Este 0 951.3 -2.4 18
2019-05-13 15:00:00 31.5 3 Este 18 Este 0 952.2 -1.9 19
2019-05-13 14:00:00 30 6 Este 16 Este 0 953 -1.3 18
2019-05-13 13:00:00 29 7 Este 19 Este 0 953.7 -0.5 20
2019-05-13 12:00:00 28 6 Sudeste 22 Este 0 954.1 -0.3 22
2019-05-13 11:00:00 26.2 9 Este 21 Este 0 954.3 0.2 23
2019-05-13 10:00:00 23.8 9 Este 17 Nordeste 0 954.2 0.6 28
2019-05-13 09:00:00 19.3 6 Este 12 Este 0 954.4 0.6 43
2019-05-13 08:00:00 13.5 5 Sudeste 10 Este 0 954.1 0.1 59
2019-05-13 07:00:00 11 6 Sudeste 9 Sudeste 0 953.6 -0.7 81
2019-05-13 06:00:00 11.6 4 Sudeste 6 Este 0 953.8 -0.5 82
2019-05-13 05:00:00 12.4 5 Este 10 Este 0 954 -0.7 83
2019-05-13 04:00:00 13.4 5 Este 8 Este 0 954.3 -0.7 81
2019-05-13 03:00:00 13.9 4 Este 8 Sudeste 0 954.3 -0.9 81
2019-05-13 02:00:00 14.8 0 Calma 8 Sudeste 0 954.7 -0.7 79
2019-05-13 01:00:00 15.2 5 Sudeste 8 Este 0 955 0.3 76
2019-05-13 00:00:00 15.5 3 Sudeste 6 Este 0 955.2 0.7 76
2019-05-12 23:00:00 16.9 2 Sudeste 5 Este 0 955.4 1.2 72
2019-05-12 22:00:00 19.1 4 Este 6 Este 0 954.7 0.2 63
2019-05-12 21:00:00 26.2 0 Calma 14 Sur 0 954.5 -0.4 39
2019-05-12 20:00:00 28 6 Sur 15 Sur 0 954.2 -1.2 34
2019-05-12 19:00:00 29 8 Sur 15 Nordeste 0 954.5 -1.4 32
2019-05-12 18:00:00 29.7 5 Sudeste 17 Nordeste 0 954.9 -1.5 33
2019-05-12 17:00:00 29.3 9 Este 17 Este 0 955.4 -1.3 32
2019-05-12 16:00:00 28.9 6 Sudeste 17 Este 0 955.9 -1.1 35
2019-05-12 15:00:00 28.4 4 Sudeste 20 Este 0 956.4 -0.8 36
2019-05-12 14:00:00 27.1 6 Sudeste 23 Este 0 956.7 -0.3 38
2019-05-12 13:00:00 26.1 13 Este 22 Este 0 957 0.2 38
2019-05-12 12:00:00 25.7 6 Sudeste 30 Este 0 957.2 0.6 42
2019-05-12 11:00:00 24.1 8 Sudeste 27 Sudeste 0 957 0.7 44
2019-05-12 10:00:00 22.5 10 Este 21 Este 0 956.8 0.7 48
2019-05-12 09:00:00 19 5 Este 10 Este 0 956.6 0.9 52
2019-05-12 08:00:00 14.1 5 Sudeste 15 Sudeste 0 956.3 0.8 58
2019-05-12 07:00:00 13.8 5 Este 10 Este 0 956.1 0.5 56
2019-05-12 06:00:00 16 6 Sudeste 14 Este 0 955.7 0 49
2019-05-12 05:00:00 15.6 6 Sudeste 15 Este 0 955.5 -0.4 52
2019-05-12 04:00:00 15.8 5 Este 9 Sudeste 0 955.6 -0.3 52
2019-05-12 03:00:00 13.5 5 Sudeste 10 Este 0 955.7 -0.1 64
2019-05-12 02:00:00 13.5 5 Este 8 Este 0 955.9 0.3 62
2019-05-12 01:00:00 15.2 3 Sudeste 6 Sudeste 0 955.9 0.9 49
2019-05-12 00:00:00 16.1 0 Calma 9 Este 0 955.8 1.3 47
2019-05-11 23:00:00 16.9 4 Este 10 Nordeste 0 955.6 1.3 44
2019-05-11 22:00:00 20.8 4 Nordeste 11 Nordeste 0 955 0.8 36
2019-05-11 21:00:00 26.6 3 Nordeste 14 Este 0 954.5 0.4 25
2019-05-11 20:00:00 28.7 6 Nordeste 18 Norte 0 954.3 0.2 23
2019-05-11 19:00:00 29.7 7 Nordeste 16 Nordeste 0 954.2 -0.3 23
2019-05-11 18:00:00 30 5 Nordeste 18 Nordeste 0 954.1 -1 23
2019-05-11 17:00:00 29.3 8 Nordeste 23 Nordeste 0 954.1 -1.1 23
2019-05-11 16:00:00 29.5 6 Norte 19 Norte 0 954.5 -1 25
2019-05-11 15:00:00 28.1 5 Este 21 Nordeste 0 955.1 -0.4 27
2019-05-11 14:00:00 27.3 6 Norte 18 Norte 0 955.2 -0.2 29
2019-05-11 13:00:00 26.1 4 Nordeste 19 Nordeste 0 955.5 0 29
2019-05-11 12:00:00 24.5 5 Este 18 Este 0 955.5 0.4 31
2019-05-11 11:00:00 22.6 7 Este 19 Este 0 955.4 0.5 36
2019-05-11 10:00:00 19.5 7 Este 17 Este 0 955.5 1.2 53
2019-05-11 09:00:00 16 6 Este 15 Este 0 955.1 0.8 70
2019-05-11 08:00:00 12.5 4 Sudeste 8 Sudeste 0 954.9 0.7 86
2019-05-11 07:00:00 11.8 3 Sudeste 8 Este 0 954.3 0 86
2019-05-11 06:00:00 11.6 3 Sudeste 10 Este 0 954.3 -0.1 85
2019-05-11 05:00:00 14 4 Este 15 Nordeste 0 954.2 -0.4 77
2019-05-11 04:00:00 14 4 Nordeste 13 Este 0 954.3 -0.3 78
2019-05-11 03:00:00 14.7 4 Este 10 Norte 0 954.4 -0.3 78
2019-05-11 02:00:00 15.7 6 Este 10 Este 0 954.6 0.2 76
2019-05-11 01:00:00 16.5 4 Nordeste 9 Noroeste 0 954.6 1.1 72
2019-05-11 00:00:00 17.1 3 Noroeste 16 Norte 0 954.7 2 68
2019-05-10 23:00:00 18 5 Noroeste 20 Noroeste 0 954.4 2.2 64
2019-05-10 22:00:00 19.4 8 Noroeste 23 Noroeste 0 953.5 1.4 57
2019-05-10 21:00:00 22.3 5 Norte 28 Noroeste 0 952.7 0.5 44
2019-05-10 20:00:00 24.8 12 Noroeste 22 Oeste 0 952.2 0 38
2019-05-10 19:00:00 25.5 11 Oeste 23 Oeste 0 952.1 -0.5 35
2019-05-10 18:00:00 26.4 9 Oeste 20 Oeste 0 952.2 -0.8 33
2019-05-10 17:00:00 26 8 Oeste 19 Oeste 0 952.2 -1 33
2019-05-10 16:00:00 25.5 10 Oeste 21 Oeste 0 952.6 -1 35
2019-05-10 15:00:00 24.6 10 Oeste 17 Oeste 0 953 -0.5 38
2019-05-10 14:00:00 23.8 3 Sudoeste 15 Norte 0 953.2 -0.4 41
2019-05-10 13:00:00 22.8 5 Oeste 21 Noroeste 0 953.6 0.1 44
2019-05-10 12:00:00 20.8 5 Oeste 14 Noroeste 0 953.5 0.5 50
2019-05-10 11:00:00 19.1 3 Nordeste 12 Este 0 953.6 1 62
2019-05-10 10:00:00 16.1 8 Noroeste 12 Norte 0 953.5 1.2 82
2019-05-10 09:00:00 13.7 4 Norte 13 Nordeste 0 953 0.8 91
2019-05-10 08:00:00 13 6 Nordeste 13 Norte 0 952.6 0.1 91
2019-05-10 07:00:00 12.8 3 Nordeste 8 Nordeste 0 952.3 0 92
2019-05-10 06:00:00 11.1 3 Este 5 Sudeste 0 952.2 -0.4 91
2019-05-10 05:00:00 11.7 3 Este 10 Noroeste 0 952.5 -0.5 90
2019-05-10 04:00:00 12.8 3 Noroeste 10 Noroeste 0 952.3 -0.7 92
2019-05-10 03:00:00 11.8 2 Este 5 Sudeste 0 952.6 -0.5 91
2019-05-10 02:00:00 12.8 4 Este 11 Norte 0 953 0.2 90
2019-05-10 01:00:00 13 0 Calma 5 Noroeste 0 953 0.7 90
2019-05-10 00:00:00 13.2 3 Este 5 Este 0 953.1 1.3 89
2019-05-09 23:00:00 14.1 2 Este 5 Sudoeste 0 952.8 1 84
2019-05-09 22:00:00 16.9 0 Calma 6 Oeste 0 952.3 0.2 73
2019-05-09 21:00:00 19.3 0 Calma 13 Sudoeste 0 951.8 -0.4 64
2019-05-09 20:00:00 20.7 5 Sudoeste 21 Oeste 0 951.8 -0.8 59
2019-05-09 19:00:00 21.3 8 Sudoeste 21 Oeste 0 952.1 -1 58
2019-05-09 18:00:00 21.2 8 Sudoeste 23 Oeste 0 952.2 -1.1 58
2019-05-09 17:00:00 20.2 8 Sur 18 Sudoeste 0 952.6 -0.5 63
2019-05-09 16:00:00 19.4 8 Sudoeste 21 Sudoeste 0 953.1 -0.4 64
2019-05-09 15:00:00 19 7 Sudoeste 19 Sudoeste 0 953.3 -0.2 66
2019-05-09 14:00:00 19.3 8 Sudoeste 17 Oeste 0 953.1 -0.4 66
2019-05-09 13:00:00 18 7 Oeste 14 Sudoeste 0 953.5 0.1 70
2019-05-09 12:00:00 17.3 9 Oeste 18 Oeste 0 953.5 0.4 75
2019-05-09 11:00:00 16.3 4 Oeste 13 Oeste 0 953.5 0.9 85
2019-05-09 10:00:00 14.6 4 Sur 12 Sur 0 953.4 1.1 91
2019-05-09 09:00:00 14.2 5 Sur 11 Sudoeste 0 953.1 0.9 91
2019-05-09 08:00:00 14.3 2 Noroeste 5 Noroeste 0 952.6 0.4 90
2019-05-09 07:00:00 14.4 0 Calma 8 Oeste 0 952.3 -0.1 89
2019-05-09 06:00:00 14.6 3 Norte 14 Oeste 0 952.2 -0.5 85
2019-05-09 05:00:00 14.6 9 Oeste 15 Oeste 0 952.2 -0.7 84
2019-05-09 04:00:00 14.7 6 Oeste 12 Oeste 0 952.4 -0.6 84
2019-05-09 03:00:00 14.4 6 Oeste 13 Oeste 0 952.7 -0.5 85
2019-05-09 02:00:00 14.8 8 Oeste 18 Oeste 0 952.9 -0.2 83
2019-05-09 01:00:00 15.3 11 Oeste 16 Oeste 0 953 0.4 79
2019-05-09 00:00:00 15.2 8 Oeste 14 Oeste 0 953.2 1 79
2019-05-08 23:00:00 16 6 Oeste 21 Oeste 0 953.1 1.2 73
2019-05-08 22:00:00 16.6 10 Oeste 23 Oeste 0 952.6 0.8 68
2019-05-08 21:00:00 17.9 10 Oeste 22 Oeste 0 952.2 0.6 59
2019-05-08 20:00:00 18.7 11 Oeste 26 Oeste 0 951.9 -0.1 57
2019-05-08 19:00:00 19.3 13 Oeste 27 Oeste 0 951.8 -0.5 55
2019-05-08 18:00:00 20.1 13 Oeste 26 Oeste 0 951.6 -1.1 54
2019-05-08 17:00:00 18.9 8 Sur 21 Oeste 0 952 -0.6 58
2019-05-08 16:00:00 19.2 5 Sudoeste 16 Oeste 0 952.3 -0.9 55
2019-05-08 15:00:00 18.5 5 Oeste 21 Oeste 0 952.7 -0.6 57
2019-05-08 14:00:00 18.6 7 Oeste 27 Oeste 0 952.6 -0.6 54
2019-05-08 13:00:00 18.5 13 Oeste 29 Oeste 0 953.2 0.4 59
2019-05-08 12:00:00 18 14 Oeste 32 Oeste 0 953.3 0.5 66
2019-05-08 11:00:00 16.2 16 Oeste 32 Oeste 0 953.2 0.7 71
2019-05-08 10:00:00 15.8 9 Oeste 23 Sudoeste 0 952.8 0.5 76
2019-05-08 09:00:00 14.1 8 Oeste 14 Oeste 0 952.8 0.5 87
2019-05-08 08:00:00 11.4 0 Calma 4 Noroeste 0 952.5 0 91
2019-05-08 07:00:00 10.5 0 Calma 5 Este 0 952.3 -0.2 91
2019-05-08 06:00:00 10.9 0 Calma 5 Este 0 952.3 -0.9 90
2019-05-08 05:00:00 11.6 2 Sudeste 5 Sudeste 0 952.5 -0.5 90
2019-05-08 04:00:00 12.6 4 Este 7 Este 0 952.5 -0.9 90
2019-05-08 03:00:00 12.6 0 Calma 5 Sudeste 0 953.2 -0.4 89
2019-05-08 02:00:00 13.1 3 Este 6 Noroeste 0 953 -0.7 88
2019-05-08 01:00:00 13.4 0 Calma 5 Nordeste 0 953.4 0.4 84
2019-05-08 00:00:00 15 3 Nordeste 6 Este 0 953.6 1.3 78
2019-05-07 23:00:00 16.7 3 Noroeste 18 Oeste 0 953.7 1.6 70
2019-05-07 22:00:00 17.5 6 Noroeste 13 Noroeste 0 953 0.9 64
2019-05-07 21:00:00 20.3 4 Norte 21 Oeste 0 952.3 0 52
2019-05-07 20:00:00 22 9 Oeste 22 Sudoeste 0 952.1 -0.5 41
2019-05-07 19:00:00 24.2 13 Oeste 25 Oeste 0 952.1 -1.3 37
2019-05-07 18:00:00 24.4 10 Oeste 29 Oeste 0 952.3 -1.5 39
2019-05-07 17:00:00 24.3 10 Oeste 20 Oeste 0 952.6 -1.9 39
2019-05-07 16:00:00 23.5 6 Oeste 23 Oeste 0 953.4 -1.5 40
2019-05-07 15:00:00 22.9 9 Oeste 19 Oeste 0 953.8 -1.3 41
2019-05-07 14:00:00 22.4 6 Sudoeste 16 Oeste 0 954.5 -0.6 43
2019-05-07 13:00:00 20.5 8 Oeste 19 Oeste 0 954.9 -0.1 49
2019-05-07 12:00:00 19.4 4 Sudoeste 14 Sudoeste 0 955.1 0.3 49
2019-05-07 11:00:00 17.7 6 Sudoeste 13 Sudoeste 0 955.1 0.2 54
2019-05-07 10:00:00 16.7 4 Este 7 Este 0 955 0.4 60
2019-05-07 09:00:00 13 5 Este 8 Este 0 954.8 0.4 78
2019-05-07 08:00:00 8.5 2 Este 5 Este 0 954.9 -0.2 90
2019-05-07 07:00:00 8.5 3 Este 6 Este 0 954.6 -0.6 90
2019-05-07 06:00:00 8.6 4 Este 6 Este 0 954.4 -0.7 89
2019-05-07 05:00:00 9.2 3 Este 5 Este 0 955.1 -0.4 88
2019-05-07 04:00:00 9.4 3 Sudeste 7 Este 0 955.2 -0.1 86
2019-05-07 03:00:00 10.4 4 Este 6 Noroeste 0 955.1 -0.3 84
2019-05-07 02:00:00 11.2 0 Calma 5 Norte 0 955.5 0 81
2019-05-07 01:00:00 11.5 3 Sudeste 6 Sudeste 0 955.3 0.4 83
2019-05-07 00:00:00 12.3 3 Sudeste 5 Este 0 955.4 0.9 78
2019-05-06 23:00:00 15 0 Calma 14 Sudoeste 0 955.5 1.4 59
2019-05-06 22:00:00 17.6 4 Sur 13 Sur 0 954.9 1 46
2019-05-06 21:00:00 19.8 6 Sur 14 Sudoeste 0 954.5 0.3 42
2019-05-06 20:00:00 21.2 8 Sudoeste 28 Sudoeste 0 954.1 -0.4 42
2019-05-06 19:00:00 22.3 6 Oeste 20 Oeste 0 953.9 -1.1 40
2019-05-06 18:00:00 22.2 8 Oeste 19 Oeste 0 954.2 -1.1 39
2019-05-06 17:00:00 20.6 8 Oeste 23 Noroeste 0 954.5 -1 47
2019-05-06 16:00:00 20.8 11 Oeste 21 Oeste 0 955 -0.6 47
2019-05-06 15:00:00 20.7 7 Sudoeste 20 Sudoeste 0 955.3 -0.4 53
2019-05-06 14:00:00 19.4 9 Sudoeste 21 Oeste 0 955.5 0.1 64
2019-05-06 13:00:00 18 9 Sudoeste 17 Oeste 0 955.6 0.4 68
2019-05-06 12:00:00 16.7 10 Oeste 17 Oeste 0 955.7 0.5 71
2019-05-06 11:00:00 15.1 8 Oeste 13 Sudoeste 0 955.4 0.7 80
2019-05-06 10:00:00 13.3 5 Oeste 8 Sudoeste 0 955.2 1 89
2019-05-06 09:00:00 10.7 4 Oeste 6 Oeste 0 955.2 1.2 91
2019-05-06 08:00:00 9 0 Calma 7 Este 0 954.7 0.8 91
2019-05-06 07:00:00 8.9 4 Este 6 Este 0 954.2 0.4 91
2019-05-06 06:00:00 9.1 3 Este 4 Este 0 954 0.3 90
2019-05-06 05:00:00 10 0 Calma 5 Este 0 953.9 0 90
2019-05-06 04:00:00 10.7 3 Este 7 Sudeste 0 953.8 0.1 90
2019-05-06 03:00:00 10.6 4 Sudeste 7 Este 0 953.7 -0.2 91
2019-05-06 02:00:00 10.8 0 Calma 4 Este 0 953.9 0.2 89
2019-05-06 01:00:00 11.8 0 Calma 5 Este 0 953.7 0.4 88
2019-05-06 00:00:00 13.1 0 Calma 6 Norte 0 953.9 1.1 84
2019-05-05 23:00:00 14.5 0 Calma 8 Oeste 0 953.7 1.2 79
2019-05-05 22:00:00 16.6 4 Sudoeste 16 Sudoeste 0 953.3 1 69
2019-05-05 21:00:00 18.5 6 Sudoeste 18 Sudoeste 0 952.8 0.4 60
2019-05-05 20:00:00 20.6 9 Sudoeste 23 Sudoeste 0 952.5 -0.1 53
2019-05-05 19:00:00 21.2 11 Sudoeste 31 Sudoeste 0 952.3 -0.8 49
2019-05-05 18:00:00 22.2 9 Sudoeste 24 Sudoeste 0 952.4 -1.3 47
2019-05-05 17:00:00 22.1 9 Sudoeste 23 Oeste 0 952.6 -1.4 45
2019-05-05 16:00:00 21.2 9 Sudoeste 24 Sudoeste 0 953.1 -0.8 49
2019-05-05 15:00:00 19.8 7 Sudoeste 19 Sudoeste 0 953.7 0.2 54
2019-05-05 14:00:00 16.8 7 Sudoeste 17 Sudoeste 0 954 1.1 69
2019-05-05 13:00:00 14 6 Sudoeste 14 Oeste 0 953.9 1.4 85
2019-05-05 12:00:00 13.2 4 Sudoeste 12 Oeste 0 953.5 1.3 91
2019-05-05 11:00:00 12.9 4 Sudoeste 12 Oeste 0 952.9 1.3 92
2019-05-05 10:00:00 12.3 4 Sudoeste 10 Sudoeste 0 952.5 1.6 94
2019-05-05 09:00:00 11.9 3 Oeste 9 Sur 0 952.2 1.4 94
2019-05-05 08:00:00 11.2 4 Sur 8 Sur 0 951.6 1 94
2019-05-05 07:00:00 11.2 0 Calma 8 Oeste 0 950.9 0.1 94
2019-05-05 06:00:00 9.3 0 Calma 3 Noroeste 0 950.8 -0.1 91
2019-05-05 05:00:00 9.2 0 Calma 5 Este 0 950.6 -0.7 93
2019-05-05 04:00:00 9.7 0 Calma 4 Este 0 950.8 -0.3 91
2019-05-05 03:00:00 10 0 Calma 3 Norte 0 950.9 -0.2 90
2019-05-05 02:00:00 11.1 0 Calma 3 Oeste 0 951.3 0.4 90
2019-05-05 01:00:00 12 0 Calma 7 Oeste 0 951.1 0.6 88
2019-05-05 00:00:00 13.4 3 Oeste 11 Noroeste 0 951.1 1 85
2019-05-04 23:00:00 14.8 4 Oeste 11 Sudoeste 0 950.9 1.2 81
2019-05-04 22:00:00 16.3 4 Oeste 18 Sudoeste 0 950.5 0.8 75
2019-05-04 21:00:00 18.4 8 Sudoeste 22 Sudoeste 0 950.1 0.6 62
2019-05-04 20:00:00 20.6 8 Sudoeste 21 Sudoeste 0 949.7 -0.1 49
2019-05-04 19:00:00 21.4 9 Sudoeste 21 Oeste 0 949.7 -0.4 48
2019-05-04 18:00:00 21.9 6 Sudoeste 26 Oeste 0 949.5 -0.8 47
2019-05-04 17:00:00 21.2 8 Sudoeste 25 Sudoeste 0 949.8 -0.6 47
2019-05-04 16:00:00 20.8 7 Sudoeste 19 Oeste 0 950.1 -0.6 48
2019-05-04 15:00:00 20.5 5 Sur 20 Sudeste 0 950.3 -0.2 53
2019-05-04 14:00:00 19.2 4 Sur 19 Oeste 0 950.4 0.1 58
2019-05-04 13:00:00 18.9 6 Sudoeste 22 Sudeste 0 950.7 0.8 62
2019-05-04 12:00:00 17.7 0 Calma 12 Oeste 0 950.5 1 64
2019-05-04 11:00:00 15.7 3 Sur 12 Sur 0 950.3 1.4 78
2019-05-04 10:00:00 14.6 3 Sur 10 Sur 0 949.9 1.5 85
2019-05-04 09:00:00 13.7 0 Calma 7 Sur 0 949.5 1.6 91
2019-05-04 08:00:00 12.5 3 Este 12 Este 0 948.9 1.1 94
2019-05-04 07:00:00 12.3 6 Este 10 Este 0 948.4 0.7 94
2019-05-04 06:00:00 8.9 0 Calma 10 Este 0 947.9 0.3 89
2019-05-04 05:00:00 9.3 3 Este 7 Este 0 947.8 0.2 92
2019-05-04 04:00:00 10.4 3 Sudeste 9 Oeste 0 947.7 0.2 94
2019-05-04 03:00:00 10.1 3 Este 6 Este 0 947.6 0.4 78
2019-05-04 02:00:00 10.8 0 Calma 8 Este 0 947.6 0.8 80
2019-05-04 01:00:00 12.6 0 Calma 6 Sur 0 947.5 1.7 87
2019-05-04 00:00:00 13.5 0 Calma 6 Este 0 947.2 2 85
2019-05-03 23:00:00 14.9 0 Calma 8 Este 0 946.8 2.3 75
2019-05-03 22:00:00 16.7 3 Este 7 Norte 0 945.8 1.1 54
2019-05-03 21:00:00 22.4 3 Noroeste 22 Norte 0 945.2 0.4 37
2019-05-03 20:00:00 24.2 13 Noroeste 27 Noroeste 0 944.5 -0.5 36
2019-05-03 19:00:00 24.3 19 Oeste 33 Noroeste 0 944.7 -0.6 34
2019-05-03 18:00:00 24.8 19 Oeste 38 Oeste 0 944.8 -0.7 32
2019-05-03 17:00:00 25.6 16 Noroeste 30 Oeste 0 945 -1 33
2019-05-03 16:00:00 24.1 16 Oeste 31 Oeste 0 945.3 -1.3 37
2019-05-03 15:00:00 23.8 9 Oeste 27 Noroeste 0 945.5 -1.2 39
2019-05-03 14:00:00 23.8 11 Oeste 23 Oeste 0 946 -0.8 43
2019-05-03 13:00:00 22.6 9 Sudoeste 25 Oeste 0 946.6 -0.3 42
2019-05-03 12:00:00 21.1 7 Oeste 25 Oeste 0 946.7 -0.1 46
2019-05-03 11:00:00 20.5 7 Oeste 15 Oeste 0 946.8 0.2 49
2019-05-03 10:00:00 17.8 4 Oeste 6 Oeste 0 946.9 0.6 65
2019-05-03 09:00:00 14 0 Calma 4 Este 0 946.8 0.5 86
2019-05-03 08:00:00 10.7 4 Este 6 Este 0 946.6 0 90
2019-05-03 07:00:00 10.2 2 Sudeste 4 Sudeste 0 946.3 -0.3 89
2019-05-03 06:00:00 10.5 0 Calma 6 Oeste 0 946.3 -0.4 85
2019-05-03 05:00:00 11.6 0 Calma 9 Oeste 0 946.6 -0.2 79
2019-05-03 04:00:00 12.4 2 Oeste 10 Noroeste 0 946.6 -0.3 76
2019-05-03 03:00:00 13.4 4 Noroeste 10 Oeste 0 946.7 -0.2 74
2019-05-03 02:00:00 14.2 2 Noroeste 7 Este 0 946.8 0.2 76
2019-05-03 01:00:00 16.3 0 Calma 18 Sur 0 946.9 0.8 68
2019-05-03 00:00:00 15.1 3 Sudeste 8 Este 0 946.9 1.3 78
2019-05-02 23:00:00 16.4 3 Sudeste 8 Este 0 946.6 1 75
2019-05-02 22:00:00 17.7 5 Este 6 Este 0 946.1 0.6 75
2019-05-02 21:00:00 19.7 0 Calma 4 Noroeste 0 945.6 0.1 69
2019-05-02 20:00:00 21.2 2 Este 4 Sudeste 0 945.6 -0.2 64
2019-05-02 19:00:00 24.3 0 Calma 6 Norte 0 945.5 -0.6 45
2019-05-02 18:00:00 25.9 0 Calma 12 Sur 0 945.5 -1 33
2019-05-02 17:00:00 26.6 3 Sudeste 21 Sur 0 945.8 -1.5 36
2019-05-02 16:00:00 26.8 8 Sur 23 Sur 0 946.1 -1.5 35
2019-05-02 15:00:00 26.1 6 Sur 22 Sur 0 946.5 -1 38
2019-05-02 14:00:00 25.4 6 Sudeste 20 Sudeste 0 947.3 0 38
2019-05-02 13:00:00 25 7 Sudeste 18 Sur 0 947.6 0.1 38
2019-05-02 12:00:00 24.4 5 Este 17 Este 0 947.5 0.5 39
2019-05-02 11:00:00 22.1 8 Este 21 Este 0 947.3 0.8 46
2019-05-02 10:00:00 19 8 Este 12 Este 0 947.5 1 51
2019-05-02 09:00:00 14.6 0 Calma 3 Nordeste 0 947 0.7 80
2019-05-02 08:00:00 10.8 3 Este 6 Este 0 946.5 0 86
2019-05-02 07:00:00 10.6 4 Este 7 Este 0 946.5 0 89
2019-05-02 06:00:00 11 3 Este 6 Este 0 946.3 -0.9 89
2019-05-02 05:00:00 11.8 2 Sudeste 5 Sudeste 0 946.5 -0.9 88
2019-05-02 04:00:00 11.9 3 Sudeste 6 Sudeste 0 946.5 -1.2 81
2019-05-02 03:00:00 12.2 5 Este 9 Este 0 947.2 -0.1 82
2019-05-02 02:00:00 13.2 4 Sudeste 8 Este 0 947.4 0.2 77
2019-05-02 01:00:00 13.4 2 Este 7 Este 0 947.7 0.9 80
2019-05-02 00:00:00 15.3 0 Calma 6 Este 0 947.3 1 72
2019-05-01 23:00:00 15.7 4 Sudeste 6 Sudeste 0 947.2 0.7 70
2019-05-01 22:00:00 17.1 4 Este 6 Este 0 946.8 0.5 65
2019-05-01 21:00:00 19.5 3 Este 4 Sudeste 0 946.3 0.2 49
2019-05-01 20:00:00 22.4 2 Este 9 Sur 0 946.5 -0.3 47
2019-05-01 19:00:00 24.1 0 Calma 18 Sudoeste 0 946.3 -1.1 39
2019-05-01 18:00:00 26.4 6 Sur 15 Sur 0 946.1 -1.7 32
2019-05-01 17:00:00 26.1 4 Sudoeste 18 Oeste 0 946.8 -1.4 35
2019-05-01 16:00:00 25.7 5 Sudoeste 17 Sur 0 947.4 -1.2 36
2019-05-01 15:00:00 25.6 5 Sur 15 Sur 0 947.8 -1 38
2019-05-01 14:00:00 24.9 6 Sur 17 Sur 0 948.2 -0.7 39
2019-05-01 13:00:00 24.8 7 Sur 18 Sur 0 948.6 -0.2 44
2019-05-01 12:00:00 23.9 5 Sur 11 Sur 0 948.8 0.1 46
2019-05-01 11:00:00 23 4 Este 8 Este 0 948.9 0.5 52
2019-05-01 10:00:00 19.7 0 Calma 4 Este 0 948.8 0.7 64
2019-05-01 09:00:00 15.2 0 Calma 6 Este 0 948.7 0.7 86
2019-05-01 08:00:00 11.3 2 Sudeste 5 Este 0 948.4 0.1 90
2019-05-01 07:00:00 10.9 4 Este 7 Este 0 948.1 -0.5 89
2019-05-01 06:00:00 11.6 5 Este 8 Este 0 948 -1.2 87
2019-05-01 05:00:00 11.6 5 Este 8 Este 0 948.3 -1.3 86
2019-05-01 04:00:00 11.9 4 Este 7 Este 0 948.6 -1.2 85
2019-05-01 03:00:00 12.8 4 Este 6 Este 0 949.2 -0.7 85
2019-05-01 02:00:00 13.4 4 Sudeste 7 Sudeste 0 949.6 -0.6 85
2019-05-01 01:00:00 13.7 0 Calma 6 Este 0 949.8 0 84
2019-05-01 00:00:00 14.3 4 Este 7 Este 0 949.9 0.5 79
2019-04-30 23:00:00 15.1 3 Este 5 Este 0 950.2 0.9 78
2019-04-30 22:00:00 17.5 0 Calma 9 Sur 0 949.8 0.3 64
2019-04-30 21:00:00 21.8 4 Sur 10 Oeste 0 949.4 -0.6 46
2019-04-30 20:00:00 24.4 4 Oeste 20 Oeste 0 949.3 -1 42
2019-04-30 19:00:00 25.5 6 Oeste 18 Oeste 0 949.5 -1.4 38
2019-04-30 18:00:00 25.1 4 Sudoeste 23 Sur 0 950 -1.5 40
2019-04-30 17:00:00 25.9 5 Sudoeste 18 Oeste 0 950.3 -1.6 39
2019-04-30 16:00:00 25.6 7 Sudoeste 21 Oeste 0 950.9 -1.3 40
2019-04-30 15:00:00 24.6 7 Sur 15 Sur 0 951.5 -1 44
2019-04-30 14:00:00 25.5 5 Sudoeste 17 Sudoeste 0 951.9 -0.5 47
2019-04-30 13:00:00 24.6 3 Sur 14 Oeste 0 952.2 -0.2 49
2019-04-30 12:00:00 22.5 7 Sudoeste 13 Oeste 0 952.5 0.3 54
2019-04-30 11:00:00 21.6 0 Calma 5 Noroeste 0 952.4 0.5 55
2019-04-30 10:00:00 18.3 2 Noroeste 4 Norte 0 952.4 0.8 65
2019-04-30 09:00:00 14.2 0 Calma 4 Este 0 952.2 0.6 88
2019-04-30 08:00:00 10.3 4 Este 6 Este 0 951.9 0.2 91
2019-04-30 07:00:00 10.1 4 Este 5 Este 0 951.6 -0.3 91
2019-04-30 06:00:00 10.3 3 Sudeste 6 Sudeste 0 951.6 -0.7 90
2019-04-30 05:00:00 10.8 4 Este 5 Este 0 951.7 -0.7 89
2019-04-30 04:00:00 11 3 Este 7 Sudeste 0 951.9 -0.4 85
2019-04-30 03:00:00 11.1 2 Sudeste 5 Sudeste 0 952.3 -0.2 85
2019-04-30 02:00:00 11.7 4 Este 7 Este 0 952.4 -0.1 83
2019-04-30 01:00:00 12.3 3 Sudeste 6 Este 0 952.3 0.5 80
2019-04-30 00:00:00 12.9 4 Sudeste 6 Este 0 952.5 1.1 77
2019-04-29 23:00:00 13.7 0 Calma 5 Este 0 952.5 1.3 75
2019-04-29 22:00:00 16.1 3 Este 6 Sudoeste 0 951.8 0.3 64
2019-04-29 21:00:00 21.1 3 Sudoeste 10 Sur 0 951.4 -0.2 39
2019-04-29 20:00:00 24.7 5 Sur 12 Sur 0 951.2 -0.7 34
2019-04-29 19:00:00 25 6 Oeste 15 Sudoeste 0 951.5 -0.8 34
2019-04-29 18:00:00 25.4 4 Este 13 Sur 0 951.6 -1 33
2019-04-29 17:00:00 24.8 5 Oeste 14 Sudeste 0 951.9 -1 34
2019-04-29 16:00:00 24.7 4 Sudeste 17 Sudoeste 0 952.3 -1.3 36
2019-04-29 15:00:00 23.4 8 Sur 24 Sur 0 952.6 -0.9 34
2019-04-29 14:00:00 22.8 6 Sur 23 Sur 0 952.9 -0.4 36
2019-04-29 13:00:00 22.1 6 Sudeste 22 Sur 0 953.6 0.2 36
2019-04-29 12:00:00 21.7 5 Sudeste 19 Sur 0 953.5 0.1 36
2019-04-29 11:00:00 19.8 6 Sudeste 16 Sudeste 0 953.3 -0.1 37
2019-04-29 10:00:00 18.8 6 Sudeste 19 Este 0 953.4 0.4 37
2019-04-29 09:00:00 14.9 5 Este 10 Este 0 953.4 0.4 48
2019-04-29 08:00:00 8.6 4 Este 6 Este 0 953.4 0.1 83
2019-04-29 07:00:00 8.9 3 Sudeste 5 Este 0 953 -0.6 80
2019-04-29 06:00:00 9.5 3 Sudeste 6 Sudeste 0 953 -1.2 79
2019-04-29 05:00:00 10.3 3 Sudeste 5 Este 0 953.3 -1 77
2019-04-29 04:00:00 10.6 0 Calma 5 Sudeste 0 953.6 -0.8 79
2019-04-29 03:00:00 10.6 3 Este 6 Sudeste 0 954.2 -0.2 80
2019-04-29 02:00:00 11.3 3 Sudeste 6 Sur 0 954.3 0.1 74
2019-04-29 01:00:00 12.2 0 Calma 7 Sur 0 954.4 0.5 72
2019-04-29 00:00:00 12.1 2 Este 6 Sur 0 954.4 1.1 79
2019-04-28 23:00:00 12.9 3 Sudeste 5 Este 0 954.2 1 78
2019-04-28 22:00:00 14.5 0 Calma 5 Este 0 953.9 0.6 72
2019-04-28 21:00:00 18.5 3 Este 7 Sur 0 953.3 -0.3 52
2019-04-28 20:00:00 22.5 4 Sur 11 Sudoeste 0 953.2 -0.6 38
2019-04-28 19:00:00 24.2 6 Sur 15 Sur 0 953.3 -1.2 35
2019-04-28 18:00:00 24.4 8 Sur 18 Sur 0 953.6 -1.2 35
2019-04-28 17:00:00 25.2 3 Nordeste 17 Sur 0 953.8 -1.7 38
2019-04-28 16:00:00 24.5 5 Sudoeste 14 Sur 0 954.5 -1.7 37
2019-04-28 15:00:00 24.1 6 Sur 16 Sur 0 954.8 -1.5 41
2019-04-28 14:00:00 23.5 2 Este 11 Oeste 0 955.5 -1.1 40
2019-04-28 13:00:00 21.9 2 Sudeste 11 Nordeste 0 956.2 -0.6 39
2019-04-28 12:00:00 20.7 3 Sur 17 Nordeste 0 956.3 -0.5 43
2019-04-28 11:00:00 19.4 4 Sudeste 12 Este 0 956.6 -0.1 43
2019-04-28 10:00:00 17.6 3 Este 9 Este 0 956.8 0.2 53
2019-04-28 09:00:00 11.9 2 Sudeste 7 Este 0 956.8 0.1 79
2019-04-28 08:00:00 6.6 4 Este 5 Sudeste 0 956.7 -0.4 90
2019-04-28 07:00:00 7 0 Calma 3 Este 0 956.6 -0.8 88
2019-04-28 06:00:00 7.2 0 Calma 5 Sudeste 0 956.7 -1.1 88
2019-04-28 05:00:00 8 2 Sudeste 7 Este 0 957.1 -1 88
2019-04-28 04:00:00 8.1 3 Sudeste 6 Este 0 957.4 -0.9 88
2019-04-28 03:00:00 9 3 Sudeste 5 Sudeste 0 957.8 -0.8 86
2019-04-28 02:00:00 9.1 3 Sudeste 6 Este 0 958.1 -0.5 86
2019-04-28 01:00:00 10.1 3 Sudeste 6 Este 0 958.3 0.1 83
2019-04-28 00:00:00 11 4 Este 6 Este 0 958.6 1 80
2019-04-27 23:00:00 11.7 4 Este 6 Este 0 958.6 1.3 79
2019-04-27 22:00:00 13.1 2 Sudeste 4 Sudeste 0 958.2 1 72
2019-04-27 21:00:00 18.6 0 Calma 11 Sur 0 957.6 0.3 47
2019-04-27 20:00:00 23.1 3 Sur 15 Este 0 957.3 -0.5 34
2019-04-27 19:00:00 23.5 8 Este 19 Nordeste 0 957.2 -1.3 29
2019-04-27 18:00:00 24.1 5 Este 21 Nordeste 0 957.3 -1.9 29
2019-04-27 17:00:00 23.6 5 Nordeste 18 Nordeste 0 957.8 -1.9 29
2019-04-27 16:00:00 23 6 Este 17 Este 0 958.5 -1.8 32
2019-04-27 15:00:00 22.4 6 Nordeste 18 Este 0 959.2 -1.1 34
2019-04-27 14:00:00 21.3 10 Este 20 Este 0 959.7 -0.5 34
2019-04-27 13:00:00 20.4 6 Este 21 Este 0 960.3 0.1 35
2019-04-27 12:00:00 19.6 5 Sudeste 25 Nordeste 0 960.3 0.3 37
2019-04-27 11:00:00 17.8 10 Este 24 Este 0 960.2 0.4 44
2019-04-27 10:00:00 15.3 11 Este 20 Este 0 960.2 0.8 51
2019-04-27 09:00:00 12.9 10 Este 18 Este 0 960 0.6 58
2019-04-27 08:00:00 9.2 6 Este 13 Este 0 959.8 0.3 67
2019-04-27 07:00:00 9.6 6 Este 15 Este 0 959.4 -0.3 64
2019-04-27 06:00:00 10 9 Este 15 Este 0 959.4 -0.6 63
2019-04-27 05:00:00 9.8 5 Este 16 Nordeste 0 959.5 -0.9 63
2019-04-27 04:00:00 9.7 4 Este 15 Nordeste 0 959.7 -0.8 63
2019-04-27 03:00:00 9.9 7 Este 13 Este 0 960 -0.6 63
2019-04-27 02:00:00 10.8 6 Este 17 Este 0 960.4 -0.3 58
2019-04-27 01:00:00 11.8 8 Nordeste 21 Nordeste 0 960.5 0.1 54
2019-04-27 00:00:00 12.5 9 Nordeste 21 Nordeste 0 960.6 0.8 53
2019-04-26 23:00:00 11.7 5 Nordeste 11 Norte 0 960.7 1.1 58
2019-04-26 22:00:00 13.3 4 Nordeste 10 Norte 0 960.4 1 48
2019-04-26 21:00:00 15.2 4 Nordeste 15 Norte 0 959.8 0.6 43
2019-04-26 20:00:00 16.7 8 Nordeste 18 Norte 0 959.6 0 39
2019-04-26 19:00:00 17.8 9 Norte 25 Noroeste 0 959.4 -0.7 39
2019-04-26 18:00:00 18.6 6 Norte 22 Norte 0 959.2 -1.1 39
2019-04-26 17:00:00 18.1 6 Nordeste 23 Nordeste 0 959.6 -0.7 42
2019-04-26 16:00:00 16.4 6 Norte 27 Noroeste 0 960.1 -0.6 43
2019-04-26 15:00:00 16.1 7 Nordeste 17 Noroeste 0 960.3 -0.4 46
2019-04-26 14:00:00 16.2 6 Norte 23 Noroeste 0 960.3 -0.4 47
2019-04-26 13:00:00 14.2 4 Norte 17 Noroeste 0 960.7 0.7 56
2019-04-26 12:00:00 13.5 6 Nordeste 18 Norte 0 960.7 0.9 60
2019-04-26 11:00:00 11.7 8 Nordeste 23 Nordeste 0 960.7 1.8 69
2019-04-26 10:00:00 9.9 8 Norte 21 Noroeste 0 960 1.7 79
2019-04-26 09:00:00 8.1 4 Nordeste 16 Nordeste 0 959.8 1.7 86
2019-04-26 08:00:00 6.2 0 Calma 19 Noroeste 0 958.9 1.2 88
2019-04-26 07:00:00 6.7 5 Nordeste 13 Noroeste 0 958.3 0.7 86
2019-04-26 06:00:00 6.3 3 Norte 12 Noroeste 0 958.1 0.3 86
2019-04-26 05:00:00 4.9 3 Sudeste 8 Norte 0 957.7 -0.1 88
2019-04-26 04:00:00 6.5 6 Noroeste 15 Noroeste 0 957.6 0.3 84
2019-04-26 03:00:00 7 2 Noroeste 13 Noroeste 0 957.8 0.7 80
2019-04-26 02:00:00 7.4 6 Noroeste 14 Noroeste 0 957.8 1.4 77
2019-04-26 01:00:00 8.4 10 Noroeste 18 Noroeste 0 957.3 2 74
2019-04-26 00:00:00 7.2 2 Noroeste 10 Oeste 0 957.1 2.9 83
2019-04-25 23:00:00 7.2 2 Noroeste 4 Noroeste 0 956.4 2.8 83
2019-04-25 22:00:00 9.2 3 Oeste 14 Oeste 0 955.3 2.3 69
2019-04-25 21:00:00 11.4 7 Oeste 26 Noroeste 0 954.2 1.7 52
2019-04-25 20:00:00 14.2 19 Noroeste 34 Oeste 0 953.6 1.4 42
2019-04-25 19:00:00 15 21 Oeste 36 Oeste 0 953 0.9 41
2019-04-25 18:00:00 14.3 18 Oeste 37 Oeste 0 952.5 0.7 50
2019-04-25 17:00:00 13.8 22 Oeste 38 Oeste 0 952.2 0.5 53
2019-04-25 16:00:00 13.7 18 Oeste 36 Oeste 0 952.1 0.2 57
2019-04-25 15:00:00 14.6 17 Noroeste 32 Noroeste 0 951.8 0.3 54
2019-04-25 14:00:00 12.9 13 Oeste 27 Oeste 0 951.7 0.7 59
2019-04-25 13:00:00 11.5 11 Noroeste 29 Oeste 0 951.9 1.5 70
2019-04-25 12:00:00 11.7 18 Oeste 32 Noroeste 0 951.5 1.9 67
2019-04-25 11:00:00 11 16 Oeste 26 Oeste 0 951 2.4 75
2019-04-25 10:00:00 10.2 10 Oeste 26 Oeste 0 950.4 2.8 83
2019-04-25 09:00:00 9.6 15 Oeste 23 Oeste 0 949.6 2.5 86
2019-04-25 08:00:00 9.6 14 Oeste 24 Oeste 0 948.6 1.5 90
2019-04-25 07:00:00 9.7 14 Oeste 26 Oeste 0.1 947.6 0.9 91
2019-04-25 06:00:00 9.7 13 Oeste 26 Oeste 0 947.1 0.1 91
2019-04-25 05:00:00 10 14 Oeste 26 Oeste 1.6 947.1 0.3 90
2019-04-25 04:00:00 11.2 13 Oeste 26 Oeste 4.5 946.7 -0.1 93
2019-04-25 03:00:00 11.4 18 Oeste 36 Oeste 3.9 947 0.2 91
2019-04-25 02:00:00 12.3 13 Sudoeste 35 Sudoeste 0.7 946.8 0.3 92
2019-04-25 01:00:00 12.1 13 Oeste 35 Sudoeste 1.2 946.8 0.8 92
2019-04-25 00:00:00 12.1 10 Sudoeste 46 Oeste 0.4 946.8 1.3 91
2019-04-24 23:00:00 12.1 12 Sudoeste 42 Sudoeste 0.4 946.5 1.4 92
2019-04-24 22:00:00 12.3 9 Oeste 39 Oeste 0.8 946 1.1 92
2019-04-24 21:00:00 12.3 8 Oeste 40 Oeste 14 945.5 0.5 94
2019-04-24 20:00:00 12.3 14 Sudoeste 46 Oeste 5.5 945.1 0.3 93
2019-04-24 19:00:00 11.9 14 Sudoeste 48 Sudoeste 1.1 944.9 -0.2 94
2019-04-24 18:00:00 11.9 16 Sudoeste 51 Sudoeste 6.6 945 0 92
2019-04-24 17:00:00 12 17 Sudoeste 52 Oeste 2 944.8 -0.3 92
2019-04-24 16:00:00 11.8 12 Sudoeste 43 Sur 1.5 945.1 -0.2 92
2019-04-24 15:00:00 11.6 10 Sudoeste 43 Sur 1.8 945 -0.2 92
2019-04-24 14:00:00 11.2 14 Sudoeste 45 Sudoeste 2.6 945.1 0 92
2019-04-24 13:00:00 10.9 13 Sudoeste 44 Sudoeste 2.3 945.3 0.6 92
2019-04-24 12:00:00 10.2 13 Sudoeste 32 Oeste 0.9 945.2 1 92
2019-04-24 11:00:00 9.3 9 Sudoeste 34 Sudoeste 0.4 945.1 1.5 92
2019-04-24 10:00:00 8.6 9 Sudoeste 28 Sudoeste 0 944.7 1.4 91
2019-04-24 09:00:00 8.2 12 Sudoeste 30 Sudoeste 0 944.2 1.1 92
2019-04-24 08:00:00 7.6 8 Sudoeste 22 Sudoeste 0.2 943.6 0.6 91
2019-04-24 07:00:00 7.2 6 Sur 22 Sudoeste 0 943.3 -0.2 89
2019-04-24 06:00:00 6.8 6 Sudoeste 20 Oeste 0 943.1 -0.5 90
2019-04-24 05:00:00 6.5 6 Sur 17 Sur 0 943 -0.5 90
2019-04-24 04:00:00 5.5 3 Noroeste 9 Sudoeste 0 943.5 -0.2 91
2019-04-24 03:00:00 5.1 5 Oeste 10 Noroeste 0 943.6 0.5 91
2019-04-24 02:00:00 5.4 5 Oeste 11 Oeste 0.2 943.5 0.8 90
2019-04-24 01:00:00 4.8 3 Oeste 7 Oeste 0 943.7 1.5 91
2019-04-24 00:00:00 5.8 2 Oeste 8 Oeste 0 943.1 1.9 91
2019-04-23 23:00:00 5.3 4 Noroeste 19 Oeste 0 942.7 2.5 88
2019-04-23 22:00:00 6.5 16 Oeste 37 Oeste 0.5 942.2 2.5 85
2019-04-23 21:00:00 8.3 14 Oeste 35 Oeste 0 941.2 2 64
2019-04-23 20:00:00 10.1 21 Oeste 35 Oeste 0 940.2 1 54
2019-04-23 19:00:00 11.5 13 Oeste 36 Oeste 0 939.7 1.1 53
2019-04-23 18:00:00 11.4 19 Oeste 36 Oeste 0 939.2 0.4 53
2019-04-23 17:00:00 11.8 13 Oeste 42 Oeste 0 939.2 0 62
2019-04-23 16:00:00 12.1 14 Oeste 30 Oeste 0 938.6 0.2 54
2019-04-23 15:00:00 10.7 16 Oeste 34 Oeste 0.4 938.8 0.1 67
2019-04-23 14:00:00 7.8 19 Oeste 42 Oeste 0.8 939.2 1.1 75
2019-04-23 13:00:00 12.2 13 Oeste 26 Noroeste 0 938.4 0.9 53
2019-04-23 12:00:00 10.4 12 Noroeste 29 Noroeste 0.2 938.7 1.9 70
2019-04-23 11:00:00 9.6 12 Noroeste 23 Noroeste 0 938.1 2.4 68
2019-04-23 10:00:00 8.8 8 Noroeste 23 Oeste 0 937.5 2.2 83
2019-04-23 09:00:00 7.1 11 Noroeste 27 Noroeste 0 936.8 1.3 85
2019-04-23 08:00:00 7.6 11 Noroeste 23 Norte 0.1 935.7 0.5 90
2019-04-23 07:00:00 8.2 8 Noroeste 22 Norte 2.4 935.3 -0.7 91
2019-04-23 06:00:00 8.9 11 Noroeste 33 Oeste 8.6 935.5 -1.6 90
2019-04-23 05:00:00 10.6 6 Sur 29 Sudoeste 0.3 935.2 -2.2 91
2019-04-23 04:00:00 10.8 8 Sudoeste 32 Sudoeste 0 936 -1.8 86
2019-04-23 03:00:00 10.9 8 Sudoeste 26 Sudoeste 0 937.1 -1 91
2019-04-23 02:00:00 11.3 8 Sudoeste 18 Sudoeste 0 937.4 -0.7 91
2019-04-23 01:00:00 12.1 5 Sudoeste 21 Sudoeste 0 937.8 -0.1 89
2019-04-23 00:00:00 12.1 7 Sudoeste 21 Sur 0 938.1 0.3 86